createdAt,value
2022-11-28T00:01:28.098Z,101110.78
2022-11-28T00:03:55.647Z,101103.72
2022-11-28T00:06:22.504Z,101105.34
2022-11-28T00:08:49.192Z,101106.13
2022-11-28T00:11:16.998Z,101105.94
2022-11-28T00:13:44.134Z,101103.91
2022-11-28T00:16:15.856Z,101096.63
2022-11-28T00:18:42.464Z,101095.41
2022-11-28T00:21:12.438Z,101091.78
2022-11-28T00:23:39.764Z,101096.00
2022-11-28T00:26:10.394Z,101092.38
2022-11-28T00:28:37.825Z,101094.78
2022-11-28T00:31:04.845Z,101091.16
2022-11-28T00:33:32.816Z,101093.56
2022-11-28T00:36:01.694Z,101081.25
2022-11-28T00:38:29.315Z,101069.97
2022-11-28T00:41:00.742Z,101079.22
2022-11-28T00:43:28.205Z,101076.41
2022-11-28T00:45:54.732Z,101079.78
2022-11-28T00:48:21.384Z,101080.59
2022-11-28T00:50:48.034Z,101074.56
2022-11-28T00:53:14.528Z,101072.72
2022-11-28T00:55:41.544Z,101066.47
2022-11-28T00:58:08.163Z,101058.59
2022-11-28T01:00:34.921Z,101056.78
2022-11-28T01:03:01.487Z,101053.16
2022-11-28T01:05:27.914Z,101054.75
2022-11-28T01:07:54.547Z,101055.56
2022-11-28T01:10:21.554Z,101045.06
2022-11-28T01:12:48.060Z,101043.25
2022-11-28T01:15:14.552Z,101046.69
2022-11-28T01:17:41.002Z,101040.22
2022-11-28T01:20:08.533Z,101032.34
2022-11-28T01:22:35.091Z,101032.94
2022-11-28T01:25:01.556Z,101044.03
2022-11-28T01:27:28.075Z,101038.34
2022-11-28T01:29:54.541Z,101026.63
2022-11-28T01:32:21.038Z,101034.06
2022-11-28T01:34:47.616Z,101024.19
2022-11-28T01:37:14.042Z,101035.03
2022-11-28T01:39:40.567Z,101026.75
2022-11-28T01:42:07.270Z,101032.59
2022-11-28T01:44:33.696Z,101029.50
2022-11-28T01:47:00.181Z,101033.31
2022-11-28T01:49:37.218Z,101034.91
2022-11-28T01:52:07.681Z,101034.47
2022-11-28T01:54:37.463Z,101034.25
2022-11-28T01:57:13.353Z,101042.72
2022-11-28T01:59:49.112Z,101023.34
2022-11-28T02:02:25.081Z,101023.72
2022-11-28T02:04:52.794Z,101021.47
2022-11-28T02:07:20.378Z,101022.28
2022-11-28T02:09:46.904Z,101023.66
2022-11-28T02:12:28.456Z,101009.53
2022-11-28T02:15:22.218Z,101012.72
2022-11-28T02:18:09.905Z,101003.84
2022-11-28T02:21:06.439Z,101008.06
2022-11-28T02:23:46.700Z,101012.88
2022-11-28T02:26:35.748Z,100999.75
2022-11-28T02:29:34.050Z,100997.72
2022-11-28T02:32:51.855Z,101006.16
2022-11-28T02:35:42.404Z,101005.13
2022-11-28T02:38:31.864Z,101009.38
2022-11-28T02:41:06.605Z,101004.13
2022-11-28T02:43:40.791Z,101003.09
2022-11-28T02:46:15.580Z,101000.47
2022-11-28T02:48:50.895Z,101005.72
2022-11-28T02:51:31.516Z,101007.31
2022-11-28T02:54:00.301Z,101003.69
2022-11-28T02:56:26.851Z,101008.13
2022-11-28T02:58:53.770Z,101000.03
2022-11-28T03:01:29.482Z,101001.63
2022-11-28T03:04:01.743Z,101002.44
2022-11-28T03:06:46.287Z,100999.59
2022-11-28T03:09:31.719Z,101005.06
2022-11-28T03:12:26.366Z,101004.84
2022-11-28T03:14:59.990Z,100998.00
2022-11-28T03:17:54.476Z,100993.75
2022-11-28T03:20:28.689Z,100995.38
2022-11-28T03:23:11.812Z,100994.56
2022-11-28T03:25:50.596Z,101003.25
2022-11-28T03:28:20.045Z,100999.00
2022-11-28T03:30:57.256Z,101004.25
2022-11-28T03:33:27.785Z,101006.88
2022-11-28T03:36:04.176Z,101002.66
2022-11-28T03:38:36.330Z,101006.88
2022-11-28T03:41:12.277Z,101005.28
2022-11-28T03:43:45.582Z,101000.03
2022-11-28T03:46:15.995Z,101001.63
2022-11-28T03:48:48.038Z,100994.78
2022-11-28T03:51:22.032Z,100999.81
2022-11-28T03:53:59.912Z,101007.69
2022-11-28T03:56:54.093Z,101007.69
2022-11-28T03:59:26.922Z,101008.72
2022-11-28T04:02:06.213Z,101001.63
2022-11-28T04:05:11.621Z,101011.34
2022-11-28T04:08:06.001Z,101014.75
2022-11-28T04:11:03.452Z,101020.81
2022-11-28T04:13:34.981Z,101013.16
2022-11-28T04:16:13.844Z,101015.56
2022-11-28T04:18:52.606Z,101020.00
2022-11-28T04:21:57.076Z,101014.75
2022-11-28T04:24:30.375Z,101015.56
2022-11-28T04:27:10.334Z,101021.03
2022-11-28T04:29:55.019Z,101016.59
2022-11-28T04:32:23.496Z,101012.94
2022-11-28T04:34:55.345Z,101017.38
2022-11-28T04:37:25.179Z,101012.13
2022-11-28T04:39:52.547Z,101009.50
2022-11-28T04:42:37.541Z,101006.88
2022-11-28T04:45:14.043Z,101012.94
2022-11-28T04:47:41.209Z,101018.19
2022-11-28T04:50:08.262Z,101008.50
2022-11-28T04:53:08.500Z,101012.13
2022-11-28T04:55:37.549Z,101015.78
2022-11-28T04:58:13.371Z,101022.63
2022-11-28T05:00:41.080Z,101015.78
2022-11-28T05:03:09.590Z,101023.66
2022-11-28T05:05:47.799Z,101021.03
2022-11-28T05:08:15.213Z,101026.28
2022-11-28T05:10:42.495Z,101024.69
2022-11-28T05:13:09.472Z,101029.13
2022-11-28T05:15:36.301Z,101029.13
2022-11-28T05:18:03.228Z,101032.34
2022-11-28T05:20:30.416Z,101033.13
2022-11-28T05:22:56.970Z,101040.22
2022-11-28T05:25:23.736Z,101041.00
2022-11-28T05:27:50.192Z,101041.22
2022-11-28T05:30:17.055Z,101046.47
2022-11-28T05:32:43.581Z,101049.91
2022-11-28T05:35:10.214Z,101038.59
2022-11-28T05:37:36.944Z,101042.03
2022-11-28T05:40:04.185Z,101048.31
2022-11-28T05:42:35.398Z,101040.44
2022-11-28T05:45:02.508Z,101048.31
2022-11-28T05:47:33.388Z,101050.13
2022-11-28T05:50:00.172Z,101040.44
2022-11-28T05:52:29.696Z,101045.69
2022-11-28T05:54:56.240Z,101046.47
2022-11-28T05:57:22.741Z,101040.44
2022-11-28T05:59:49.268Z,101049.09
2022-11-28T06:02:15.805Z,101048.31
2022-11-28T06:04:42.563Z,101048.88
2022-11-28T06:07:09.192Z,101054.13
2022-11-28T06:09:35.742Z,101055.75
2022-11-28T06:12:03.082Z,101057.78
2022-11-28T06:14:29.512Z,101056.75
2022-11-28T06:16:56.123Z,101054.13
2022-11-28T06:19:22.796Z,101055.75
2022-11-28T06:21:50.664Z,101047.28
2022-11-28T06:24:17.172Z,101054.94
2022-11-28T06:26:43.777Z,101062.00
2022-11-28T06:29:10.205Z,101054.13
2022-11-28T06:31:36.885Z,101054.94
2022-11-28T06:34:03.347Z,101061.00
2022-11-28T06:36:30.922Z,101073.09
2022-11-28T06:38:57.540Z,101068.88
2022-11-28T06:41:24.125Z,101064.22
2022-11-28T06:43:50.620Z,101066.84
2022-11-28T06:46:20.421Z,101070.25
2022-11-28T06:48:48.399Z,101074.50
2022-11-28T06:51:15.608Z,101071.06
2022-11-28T06:53:42.509Z,101073.69
2022-11-28T06:56:11.957Z,101065.59
2022-11-28T06:58:38.536Z,101082.16
2022-11-28T07:01:10.809Z,101082.16
2022-11-28T07:03:38.190Z,101085.56
2022-11-28T07:06:05.682Z,101083.75
2022-11-28T07:08:32.799Z,101089.00
2022-11-28T07:11:07.924Z,101089.00
2022-11-28T07:13:34.437Z,101085.56
2022-11-28T07:16:01.002Z,101092.44
2022-11-28T07:18:27.522Z,101097.47
2022-11-28T07:20:53.961Z,101094.84
2022-11-28T07:23:20.393Z,101092.44
2022-11-28T07:25:47.145Z,101094.84
2022-11-28T07:28:13.727Z,101089.59
2022-11-28T07:30:40.220Z,101092.22
2022-11-28T07:33:06.691Z,101093.81
2022-11-28T07:35:33.887Z,101099.88
2022-11-28T07:38:00.388Z,101103.31
2022-11-28T07:40:26.901Z,101109.38
2022-11-28T07:42:53.519Z,101115.41
2022-11-28T07:45:19.944Z,101122.28
2022-11-28T07:47:46.491Z,101113.38
2022-11-28T07:50:12.944Z,101121.84
2022-11-28T07:52:39.410Z,101115.78
2022-11-28T07:55:06.316Z,101117.41
2022-11-28T07:57:33.074Z,101115.56
2022-11-28T07:59:59.584Z,101115.56
2022-11-28T08:02:27.253Z,101121.41
2022-11-28T08:04:55.387Z,101122.00
2022-11-28T08:07:22.112Z,101118.34
2022-11-28T08:09:48.704Z,101120.97
2022-11-28T08:12:15.124Z,101121.56
2022-11-28T08:14:42.005Z,101113.69
2022-11-28T08:17:08.791Z,101116.91
2022-11-28T08:19:35.691Z,101115.84
2022-11-28T08:22:02.586Z,101119.06
2022-11-28T08:24:29.153Z,101118.06
2022-11-28T08:26:55.748Z,101124.91
2022-11-28T08:29:22.224Z,101130.75
2022-11-28T08:31:48.861Z,101134.97
2022-11-28T08:34:15.488Z,101133.75
2022-11-28T08:36:43.351Z,101136.16
2022-11-28T08:39:27.000Z,101136.75
2022-11-28T08:41:57.460Z,101141.78
2022-11-28T08:44:24.210Z,101142.38
2022-11-28T08:46:50.776Z,101142.16
2022-11-28T08:49:17.435Z,101138.50
2022-11-28T08:51:43.974Z,101143.09
2022-11-28T08:54:10.654Z,101140.25
2022-11-28T08:56:37.145Z,101140.84
2022-11-28T08:59:04.370Z,101140.41
2022-11-28T09:01:31.013Z,101148.88
2022-11-28T09:03:58.925Z,101147.63
2022-11-28T09:06:25.676Z,101147.97
2022-11-28T09:08:53.559Z,101145.94
2022-11-28T09:11:22.096Z,101148.34
2022-11-28T09:13:49.223Z,101151.56
2022-11-28T09:16:16.196Z,101158.22
2022-11-28T09:18:43.381Z,101152.72
2022-11-28T09:21:12.776Z,101156.75
2022-11-28T09:23:41.220Z,101157.34
2022-11-28T09:26:13.476Z,101156.31
2022-11-28T09:28:40.082Z,101156.09
2022-11-28T09:31:07.428Z,101161.13
2022-11-28T09:33:35.115Z,101150.63
2022-11-28T09:36:09.623Z,101161.50
2022-11-28T09:38:36.895Z,101152.94
2022-11-28T09:41:04.415Z,101159.34
2022-11-28T09:43:38.342Z,101165.81
2022-11-28T09:46:12.124Z,101162.16
2022-11-28T09:48:45.670Z,101160.69
2022-11-28T09:51:30.020Z,101169.38
2022-11-28T09:54:13.402Z,101163.91
2022-11-28T09:56:40.948Z,101159.81
2022-11-28T09:59:24.323Z,101158.91
2022-11-28T10:01:56.445Z,101161.09
2022-11-28T10:04:33.470Z,101160.09
2022-11-28T10:07:06.761Z,101159.84
2022-11-28T10:09:33.156Z,101160.66
2022-11-28T10:12:04.552Z,101172.00
2022-11-28T10:14:46.297Z,101163.88
2022-11-28T10:17:21.994Z,101175.19
2022-11-28T10:20:02.798Z,101170.53
2022-11-28T10:22:45.911Z,101172.47
2022-11-28T10:25:28.438Z,101168.47
2022-11-28T10:27:57.140Z,101166.63
2022-11-28T10:30:26.371Z,101171.00
2022-11-28T10:33:13.704Z,101169.53
2022-11-28T10:35:49.736Z,101167.91
2022-11-28T10:38:17.482Z,101168.50
2022-11-28T10:40:57.942Z,101167.47
2022-11-28T10:43:51.853Z,101165.56
2022-11-28T10:46:27.831Z,101167.88
2022-11-28T10:49:01.749Z,101171.31
2022-11-28T10:51:47.128Z,101175.09
2022-11-28T10:54:36.382Z,101172.25
2022-11-28T10:57:14.185Z,101166.97
2022-11-28T10:59:51.397Z,101174.06
2022-11-28T11:02:30.068Z,101159.31
2022-11-28T11:04:56.915Z,101163.28
2022-11-28T11:07:30.843Z,101162.38
2022-11-28T11:10:14.230Z,101161.34
2022-11-28T11:12:41.285Z,101170.06
2022-11-28T11:15:31.109Z,101168.81
2022-11-28T11:18:01.077Z,101168.81
2022-11-28T11:20:30.308Z,101168.34
2022-11-28T11:22:59.610Z,101185.09
2022-11-28T11:25:28.515Z,101174.31
2022-11-28T11:27:58.016Z,101179.81
2022-11-28T11:30:30.624Z,101182.44
2022-11-28T11:32:59.681Z,101188.75
2022-11-28T11:35:29.821Z,101188.16
2022-11-28T11:38:22.651Z,101185.75
2022-11-28T11:40:50.649Z,101183.69
2022-11-28T11:43:26.661Z,101187.13
2022-11-28T11:46:07.416Z,101183.25
2022-11-28T11:48:42.813Z,101180.84
2022-11-28T11:51:35.210Z,101178.44
2022-11-28T11:54:19.117Z,101183.25
2022-11-28T11:56:51.255Z,101188.88
2022-11-28T11:59:40.972Z,101197.13
2022-11-28T12:02:26.153Z,101191.63
2022-11-28T12:05:09.937Z,101190.72
2022-11-28T12:07:39.094Z,101184.97
2022-11-28T12:10:12.416Z,101195.88
2022-11-28T12:12:39.060Z,101186.94
2022-11-28T12:15:15.536Z,101187.88
2022-11-28T12:17:55.712Z,101190.38
2022-11-28T12:20:43.955Z,101192.78
2022-11-28T12:23:41.318Z,101190.75
2022-11-28T12:26:16.842Z,101181.56
2022-11-28T12:32:19.511Z,101182.97
2022-11-28T12:35:14.138Z,101189.94
2022-11-28T12:38:12.809Z,101194.63
2022-11-28T12:41:07.028Z,101186.72
2022-11-28T12:43:36.555Z,101191.66
2022-11-28T12:46:18.603Z,101192.44
2022-11-28T12:49:21.869Z,101184.56
2022-11-28T12:52:07.190Z,101198.06
2022-11-28T12:54:52.453Z,101185.91
2022-11-28T12:57:48.404Z,101192.56
2022-11-28T13:00:21.401Z,101184.66
2022-11-28T13:03:04.164Z,101187.06
2022-11-28T13:05:49.107Z,101184.22
2022-11-28T13:08:49.959Z,101190.28
2022-11-28T13:11:22.662Z,101185.00
2022-11-28T13:14:26.658Z,101193.94
2022-11-28T13:16:56.313Z,101191.31
2022-11-28T13:19:43.994Z,101198.41
2022-11-28T13:22:10.414Z,101197.63
2022-11-28T13:25:19.099Z,101198.41
2022-11-28T13:28:07.467Z,101191.09
2022-11-28T13:30:45.732Z,101203.47
2022-11-28T13:33:24.207Z,101196.81
2022-11-28T13:35:52.540Z,101198.41
2022-11-28T13:38:49.314Z,101200.03
2022-11-28T13:44:46.170Z,101204.25
2022-11-28T13:47:23.280Z,101211.94
2022-11-28T13:49:49.838Z,101210.09
2022-11-28T13:52:19.356Z,101219.84
2022-11-28T13:54:55.482Z,101216.19
2022-11-28T13:57:28.205Z,101220.66
2022-11-28T14:00:19.470Z,101220.28
2022-11-28T14:02:51.219Z,101221.56
2022-11-28T14:05:41.595Z,101226.00
2022-11-28T14:08:22.035Z,101228.88
2022-11-28T14:11:07.315Z,101230.13
2022-11-28T14:13:58.382Z,101236.19
2022-11-28T14:16:53.359Z,101233.56
2022-11-28T14:19:32.234Z,101248.34
2022-11-28T14:22:20.568Z,101244.91
2022-11-28T14:25:09.241Z,101240.91
2022-11-28T14:27:39.848Z,101239.06
2022-11-28T14:30:07.337Z,101239.06
2022-11-28T14:32:38.413Z,101250.84
2022-11-28T14:35:15.280Z,101251.88
2022-11-28T14:37:55.138Z,101254.28
2022-11-28T14:40:55.781Z,101252.69
2022-11-28T14:43:42.513Z,101251.88
2022-11-28T14:46:23.297Z,101256.69
2022-11-28T14:48:58.921Z,101251.44
2022-11-28T14:51:44.145Z,101248.81
2022-11-28T14:54:28.427Z,101260.59
2022-11-28T14:56:59.770Z,101258.19
2022-11-28T14:59:37.052Z,101253.13
2022-11-28T15:02:12.729Z,101245.47
2022-11-28T15:04:57.481Z,101254.38
2022-11-28T15:07:28.597Z,101258.06
2022-11-28T15:10:05.758Z,101255.41
2022-11-28T15:12:39.666Z,101265.94
2022-11-28T15:15:12.749Z,101264.34
2022-11-28T15:17:42.149Z,101269.03
2022-11-28T15:20:34.144Z,101266.41
2022-11-28T15:23:00.647Z,101268.44
2022-11-28T15:25:30.256Z,101272.13
2022-11-28T15:27:56.881Z,101272.13
2022-11-28T15:30:26.766Z,101277.38
2022-11-28T15:32:59.666Z,101277.38
2022-11-28T15:35:26.931Z,101281.06
2022-11-28T15:37:56.615Z,101276.84
2022-11-28T15:40:31.193Z,101284.72
2022-11-28T15:42:59.760Z,101281.53
2022-11-28T15:45:32.264Z,101285.41
2022-11-28T15:47:59.398Z,101290.09
2022-11-28T15:50:29.088Z,101293.16
2022-11-28T15:53:04.446Z,101301.28
2022-11-28T15:55:33.338Z,101300.72
2022-11-28T15:58:12.077Z,101305.97
2022-11-28T16:00:44.016Z,101308.25
2022-11-28T16:03:20.559Z,101306.84
2022-11-28T16:05:48.852Z,101301.22
2022-11-28T16:08:26.866Z,101297.66
2022-11-28T16:10:53.521Z,101297.78
2022-11-28T16:13:21.885Z,101306.78
2022-11-28T16:15:50.481Z,101305.38
2022-11-28T16:18:17.474Z,101312.91
2022-11-28T16:20:44.326Z,101322.25
2022-11-28T16:23:30.077Z,101325.91
2022-11-28T16:26:05.236Z,101331.97
2022-11-28T16:28:37.631Z,101335.41
2022-11-28T16:31:19.287Z,101338.06
2022-11-28T16:33:47.720Z,101340.47
2022-11-28T16:36:21.996Z,101329.94
2022-11-28T16:38:51.405Z,101338.06
2022-11-28T16:41:25.523Z,101344.13
2022-11-28T16:43:59.789Z,101333.81
2022-11-28T16:46:40.021Z,101342.50
2022-11-28T16:49:27.171Z,101344.94
2022-11-28T16:52:21.404Z,101344.94
2022-11-28T16:54:52.742Z,101349.38
2022-11-28T16:57:20.336Z,101346.75
2022-11-28T16:59:48.214Z,101350.19
2022-11-28T17:02:16.217Z,101350.19
2022-11-28T17:04:43.876Z,101348.56
2022-11-28T17:07:13.970Z,101354.88
2022-11-28T17:09:45.722Z,101359.53
2022-11-28T17:12:21.679Z,101368.66
2022-11-28T17:14:48.113Z,101361.44
2022-11-28T17:17:16.296Z,101368.41
2022-11-28T17:19:43.347Z,101377.97
2022-11-28T17:22:17.046Z,101372.75
2022-11-28T17:24:44.431Z,101372.59
2022-11-28T17:27:16.152Z,101376.91
2022-11-28T17:29:43.389Z,101379.38
2022-11-28T17:32:14.020Z,101378.63
2022-11-28T17:34:42.189Z,101381.09
2022-11-28T17:37:09.572Z,101380.69
2022-11-28T17:39:36.235Z,101378.13
2022-11-28T17:42:02.709Z,101382.19
2022-11-28T17:44:31.756Z,101382.84
2022-11-28T17:47:00.667Z,101386.09
2022-11-28T17:49:27.941Z,101391.19
2022-11-28T17:51:55.835Z,101392.66
2022-11-28T17:54:24.523Z,101395.31
2022-11-28T17:56:52.932Z,101398.59
2022-11-28T17:59:23.147Z,101402.66
2022-11-28T18:01:50.543Z,101399.66
2022-11-28T18:04:17.160Z,101398.94
2022-11-28T18:06:45.121Z,101397.72
2022-11-28T18:09:13.232Z,101401.59
2022-11-28T18:11:41.629Z,101408.25
2022-11-28T18:14:08.792Z,101405.06
2022-11-28T18:16:39.694Z,101405.50
2022-11-28T18:19:06.303Z,101407.97
2022-11-28T18:21:32.917Z,101420.88
2022-11-28T18:23:59.510Z,101409.56
2022-11-28T18:26:26.780Z,101422.91
2022-11-28T18:28:54.386Z,101414.25
2022-11-28T18:31:24.733Z,101424.38
2022-11-28T18:33:56.174Z,101416.91
2022-11-28T18:36:27.460Z,101416.53
2022-11-28T18:38:58.188Z,101414.50
2022-11-28T18:41:25.355Z,101420.75
2022-11-28T18:43:59.391Z,101419.16
2022-11-28T18:46:26.568Z,101416.72
2022-11-28T18:48:53.504Z,101431.09
2022-11-28T18:51:25.685Z,101433.94
2022-11-28T18:53:53.794Z,101428.69
2022-11-28T18:56:21.413Z,101436.75
2022-11-28T18:58:51.642Z,101439.38
2022-11-28T19:01:22.143Z,101441.19
2022-11-28T19:03:51.714Z,101442.22
2022-11-28T19:06:18.931Z,101443.00
2022-11-28T19:08:46.113Z,101445.84
2022-11-28T19:11:15.229Z,101450.88
2022-11-28T19:13:47.089Z,101445.81
2022-11-28T19:16:18.822Z,101448.44
2022-11-28T19:18:45.660Z,101453.47
2022-11-28T19:21:18.860Z,101450.63
2022-11-28T19:23:48.669Z,101446.78
2022-11-28T19:26:17.160Z,101445.59
2022-11-28T19:28:44.151Z,101454.06
2022-11-28T19:31:22.773Z,101462.53
2022-11-28T19:34:17.448Z,101454.25
2022-11-28T19:36:50.083Z,101459.28
2022-11-28T19:39:24.602Z,101465.16
2022-11-28T19:41:53.149Z,101456.88
2022-11-28T19:44:21.241Z,101461.09
2022-11-28T19:46:48.103Z,101459.28
2022-11-28T19:49:20.151Z,101460.91
2022-11-28T19:51:47.246Z,101465.31
2022-11-28T19:54:14.776Z,101466.09
2022-11-28T19:56:41.787Z,101467.28
2022-11-28T19:59:08.384Z,101469.72
2022-11-28T20:01:35.007Z,101467.28
2022-11-28T20:04:01.601Z,101477.75
2022-11-28T20:06:30.519Z,101481.59
2022-11-28T20:09:02.188Z,101481.38
2022-11-28T20:11:31.879Z,101486.81
2022-11-28T20:14:00.702Z,101479.91
2022-11-28T20:16:29.216Z,101482.09
2022-11-28T20:18:55.761Z,101488.75
2022-11-28T20:21:22.223Z,101489.16
2022-11-28T20:23:51.220Z,101484.50
2022-11-28T20:26:19.833Z,101488.53
2022-11-28T20:28:47.984Z,101487.50
2022-11-28T20:31:20.342Z,101490.16
2022-11-28T20:33:51.143Z,101497.00
2022-11-28T20:36:20.000Z,101506.50
2022-11-28T20:38:46.786Z,101504.69
2022-11-28T20:41:15.617Z,101510.94
2022-11-28T20:43:42.487Z,101514.19
2022-11-28T20:46:14.744Z,101514.38
2022-11-28T20:48:42.179Z,101516.00
2022-11-28T20:51:17.248Z,101507.09
2022-11-28T20:53:43.936Z,101521.03
2022-11-28T20:56:19.075Z,101513.97
2022-11-28T20:58:46.015Z,101509.53
2022-11-28T21:01:18.183Z,101514.78
2022-11-28T21:03:44.961Z,101516.38
2022-11-28T21:06:11.890Z,101522.25
2022-11-28T21:08:39.091Z,101526.47
2022-11-28T21:11:30.543Z,101523.84
2022-11-28T21:14:01.769Z,101523.84
2022-11-28T21:16:31.369Z,101526.47
2022-11-28T21:19:02.179Z,101532.34
2022-11-28T21:21:31.197Z,101526.06
2022-11-28T21:24:03.514Z,101525.25
2022-11-28T21:26:39.128Z,101527.88
2022-11-28T21:29:10.832Z,101534.97
2022-11-28T21:31:41.952Z,101539.41
2022-11-28T21:34:13.021Z,101537.59
2022-11-28T21:36:39.877Z,101541.03
2022-11-28T21:39:06.383Z,101542.84
2022-11-28T21:41:33.364Z,101551.53
2022-11-28T21:44:00.410Z,101540.22
2022-11-28T21:46:27.995Z,101542.66
2022-11-28T21:48:54.764Z,101540.22
2022-11-28T21:51:24.257Z,101539.41
2022-11-28T21:53:51.896Z,101542.84
2022-11-28T21:56:18.629Z,101544.66
2022-11-28T21:58:45.319Z,101543.88
2022-11-28T22:01:13.340Z,101543.88
2022-11-28T22:03:41.675Z,101555.19
2022-11-28T22:06:14.083Z,101556.00
2022-11-28T22:08:40.655Z,101556.00
2022-11-28T22:11:11.098Z,101557.59
2022-11-28T22:13:38.682Z,101559.22
2022-11-28T22:16:19.849Z,101558.41
2022-11-28T22:18:47.601Z,101566.88
2022-11-28T22:24:04.912Z,101560.03
2022-11-28T22:26:31.576Z,101565.28
2022-11-28T22:29:01.259Z,101562.44
2022-11-28T22:31:27.988Z,101566.69
2022-11-28T22:33:54.551Z,101568.72
2022-11-28T22:36:21.660Z,101568.72
2022-11-28T22:38:49.573Z,101572.34
2022-11-28T22:41:23.314Z,101567.31
2022-11-28T22:43:56.554Z,101574.38
2022-11-28T22:46:23.227Z,101579.63
2022-11-28T22:48:50.640Z,101585.91
2022-11-28T22:51:19.863Z,101582.25
2022-11-28T22:53:46.357Z,101585.09
2022-11-28T22:56:15.008Z,101586.72
2022-11-28T22:58:44.428Z,101587.53
2022-11-28T23:01:14.094Z,101587.31
2022-11-28T23:03:40.612Z,101584.69
2022-11-28T23:06:09.612Z,101589.13
2022-11-28T23:08:36.334Z,101583.06
2022-11-28T23:11:07.590Z,101581.44
2022-11-28T23:13:35.572Z,101593.59
2022-11-28T23:16:28.281Z,101590.75
2022-11-28T23:18:56.489Z,101589.53
2022-11-28T23:21:25.260Z,101589.72
2022-11-28T23:23:52.395Z,101592.34
2022-11-28T23:26:24.385Z,101594.38
2022-11-28T23:28:51.494Z,101589.94
2022-11-28T23:31:20.815Z,101588.94
2022-11-28T23:33:48.424Z,101595.78
2022-11-28T23:36:17.926Z,101590.34
2022-11-28T23:38:45.960Z,101602.66
2022-11-28T23:41:13.318Z,101595.59
2022-11-28T23:43:40.212Z,101606.66
2022-11-28T23:46:08.079Z,101598.78
2022-11-28T23:48:34.808Z,101600.41
2022-11-28T23:51:01.332Z,101595.94
2022-11-28T23:53:27.939Z,101601.22
2022-11-28T23:55:54.411Z,101604.03
2022-11-28T23:58:21.043Z,101606.66
